createdAt,value
2022-08-22T00:01:38.569Z,101378.41
2022-08-22T00:02:57.494Z,101362.59
2022-08-22T00:03:11.734Z,101294.56
2022-08-22T00:04:21.535Z,101374.72
2022-08-22T00:07:04.881Z,101372.72
2022-08-22T00:09:44.091Z,101368.94
2022-08-22T00:12:26.673Z,101373.47
2022-08-22T00:15:04.899Z,101377.03
2022-08-22T00:17:46.612Z,101371.34
2022-08-22T00:20:28.020Z,101378.34
2022-08-22T00:23:11.628Z,101371.09
2022-08-22T00:25:52.008Z,101374.66
2022-08-22T00:28:31.049Z,101379.31
2022-08-22T00:31:11.943Z,101375.31
2022-08-22T00:33:54.652Z,101381.56
2022-08-22T00:36:33.415Z,101378.13
2022-08-22T00:39:15.521Z,101376.97
2022-08-22T00:42:29.321Z,101375.25
2022-08-22T00:46:04.139Z,101380.41
2022-08-22T00:49:09.265Z,101386.31
2022-08-22T00:52:32.598Z,101381.44
2022-08-22T00:55:34.941Z,101380.09
2022-08-22T00:58:55.300Z,101385.84
2022-08-22T01:01:33.800Z,101380.44
2022-08-22T01:05:58.838Z,101379.72
2022-08-22T01:09:00.233Z,101381.66
2022-08-22T01:12:01.849Z,101373.81
2022-08-22T01:14:43.135Z,101375.53
2022-08-22T01:17:56.327Z,101390.84
2022-08-22T01:21:36.272Z,101379.69
2022-08-22T01:25:22.356Z,101375.66
2022-08-22T01:28:27.556Z,101380.56
2022-08-22T01:32:02.283Z,101389.03
2022-08-22T01:35:00.654Z,101388.81
2022-08-22T01:38:14.681Z,101386.59
2022-08-22T01:41:28.179Z,101393.84
2022-08-22T01:44:32.584Z,101391.72
2022-08-22T01:47:09.727Z,101384.88
2022-08-22T01:49:48.878Z,101384.03
2022-08-22T01:52:30.385Z,101386.84
2022-08-22T01:55:07.672Z,101394.44
2022-08-22T01:57:53.306Z,101400.59
2022-08-22T02:00:34.727Z,101400.34
2022-08-22T02:03:24.788Z,101403.75
2022-08-22T02:06:08.221Z,101404.50
2022-08-22T02:08:54.678Z,101396.78
2022-08-22T02:11:44.034Z,101410.13
2022-08-22T02:14:35.090Z,101402.41
2022-08-22T02:17:21.597Z,101394.94
2022-08-22T02:20:03.151Z,101398.84
2022-08-22T02:22:44.793Z,101403.28
2022-08-22T02:25:20.996Z,101415.16
2022-08-22T02:28:00.151Z,101409.41
2022-08-22T02:30:49.420Z,101409.41
2022-08-22T02:33:34.412Z,101409.88
2022-08-22T02:36:15.599Z,101405.97
2022-08-22T02:39:00.980Z,101406.56
2022-08-22T02:41:48.647Z,101411.44
2022-08-22T02:44:24.221Z,101418.56
2022-08-22T02:47:04.160Z,101421.34
2022-08-22T02:49:47.508Z,101426.13
2022-08-22T02:52:26.522Z,101430.66
2022-08-22T02:55:09.508Z,101421.06
2022-08-22T02:57:48.374Z,101420.84
2022-08-22T03:00:32.533Z,101418.28
2022-08-22T03:05:50.083Z,101420.50
2022-08-22T03:08:25.695Z,101426.03
2022-08-22T03:11:18.086Z,101424.69
2022-08-22T03:13:58.748Z,101424.31
2022-08-22T03:16:37.409Z,101424.78
2022-08-22T03:19:18.606Z,101425.00
2022-08-22T03:22:03.057Z,101432.97
2022-08-22T03:24:41.380Z,101432.38
2022-08-22T03:27:27.770Z,101437.22
2022-08-22T03:30:12.047Z,101443.84
2022-08-22T03:32:56.176Z,101440.63
2022-08-22T03:35:38.111Z,101436.56
2022-08-22T03:38:28.031Z,101441.94
2022-08-22T03:41:38.467Z,101446.94
2022-08-22T03:44:50.096Z,101437.72
2022-08-22T03:47:58.896Z,101446.13
2022-08-22T03:51:21.171Z,101435.88
2022-08-22T03:54:40.219Z,101437.09
2022-08-22T03:57:59.217Z,101440.16
2022-08-22T04:01:22.180Z,101439.69
2022-08-22T04:04:35.378Z,101443.50
2022-08-22T04:07:37.221Z,101443.75
2022-08-22T04:11:07.816Z,101445.91
2022-08-22T04:14:31.035Z,101455.06
2022-08-22T04:17:44.040Z,101460.56
2022-08-22T04:20:46.003Z,101465.94
2022-08-22T04:24:03.380Z,101458.97
2022-08-22T04:26:44.553Z,101467.16
2022-08-22T04:29:22.658Z,101478.13
2022-08-22T04:32:13.995Z,101475.22
2022-08-22T04:34:51.654Z,101478.19
2022-08-22T04:37:31.640Z,101479.84
2022-08-22T04:40:11.659Z,101485.25
2022-08-22T04:42:47.053Z,101488.28
2022-08-22T04:45:27.459Z,101489.63
2022-08-22T04:48:07.126Z,101493.38
2022-08-22T04:50:55.140Z,101499.25
2022-08-22T04:53:47.515Z,101499.50
2022-08-22T04:56:32.037Z,101498.78
2022-08-22T04:59:08.902Z,101507.63
2022-08-22T05:01:48.155Z,101505.94
2022-08-22T05:05:36.841Z,101509.38
2022-08-22T05:08:13.981Z,101512.31
2022-08-22T05:10:47.560Z,101510.13
2022-08-22T05:13:25.125Z,101521.88
2022-08-22T05:15:59.454Z,101516.69
2022-08-22T05:18:34.841Z,101526.53
2022-08-22T05:21:11.207Z,101525.88
2022-08-22T05:23:50.959Z,101527.75
2022-08-22T05:26:22.667Z,101526.63
2022-08-22T05:28:57.984Z,101530.97
2022-08-22T05:31:33.601Z,101545.91
2022-08-22T05:34:08.459Z,101550.69
2022-08-22T05:36:45.139Z,101549.66
2022-08-22T05:39:19.013Z,101550.47
2022-08-22T05:41:49.366Z,101556.22
2022-08-22T05:44:25.601Z,101557.94
2022-08-22T05:47:05.821Z,101563.66
2022-08-22T05:49:50.952Z,101563.88
2022-08-22T05:52:40.836Z,101551.50
2022-08-22T05:55:26.880Z,101552.16
2022-08-22T05:58:31.988Z,101552.09
2022-08-22T06:01:15.405Z,101555.31
2022-08-22T06:04:09.418Z,101556.78
2022-08-22T06:06:48.723Z,101544.53
2022-08-22T06:09:34.832Z,101541.59
2022-08-22T06:12:21.940Z,101547.03
2022-08-22T06:15:11.783Z,101533.63
2022-08-22T06:17:46.262Z,101529.44
2022-08-22T06:20:22.909Z,101525.22
2022-08-22T06:22:59.802Z,101516.66
2022-08-22T06:25:34.639Z,101509.16
2022-08-22T06:28:10.612Z,101507.81
2022-08-22T06:30:41.800Z,101495.53
2022-08-22T06:33:17.577Z,101485.88
2022-08-22T06:36:09.624Z,101489.63
2022-08-22T06:39:04.169Z,101478.59
2022-08-22T06:41:41.076Z,101472.28
2022-08-22T06:44:15.196Z,101469.78
2022-08-22T06:46:49.059Z,101471.63
2022-08-22T06:49:20.218Z,101466.00
2022-08-22T06:51:51.194Z,101470.81
2022-08-22T06:54:25.622Z,101470.25
2022-08-22T06:56:57.506Z,101456.88
2022-08-22T06:59:31.169Z,101455.69
2022-08-22T07:05:38.252Z,101464.75
2022-08-22T07:08:12.257Z,101460.59
2022-08-22T07:10:44.183Z,101475.88
2022-08-22T07:13:17.958Z,101477.28
2022-08-22T07:15:56.849Z,101473.03
2022-08-22T07:18:28.749Z,101470.19
2022-08-22T07:21:03.842Z,101472.34
2022-08-22T07:23:38.086Z,101464.34
2022-08-22T07:26:25.579Z,101478.22
2022-08-22T07:29:00.689Z,101463.47
2022-08-22T07:31:39.386Z,101474.19
2022-08-22T07:34:35.991Z,101462.38
2022-08-22T07:37:16.239Z,101460.78
2022-08-22T07:39:54.564Z,101468.22
2022-08-22T07:42:31.701Z,101472.69
2022-08-22T07:45:11.146Z,101463.41
2022-08-22T07:48:03.046Z,101465.34
2022-08-22T07:50:37.744Z,101467.22
2022-08-22T07:53:21.098Z,101473.00
2022-08-22T07:55:53.140Z,101477.44
2022-08-22T07:58:26.288Z,101474.28
2022-08-22T08:00:58.074Z,101475.09
2022-08-22T08:03:31.173Z,101480.06
2022-08-22T08:06:03.234Z,101471.53
2022-08-22T08:08:42.907Z,101467.91
2022-08-22T08:11:19.054Z,101465.53
2022-08-22T08:13:54.581Z,101473.41
2022-08-22T08:16:28.186Z,101480.38
2022-08-22T08:19:01.958Z,101470.91
2022-08-22T08:21:39.301Z,101464.50
2022-08-22T08:24:17.164Z,101465.78
2022-08-22T08:27:11.271Z,101456.97
2022-08-22T08:29:43.259Z,101473.88
2022-08-22T08:32:15.977Z,101476.59
2022-08-22T08:34:45.923Z,101467.78
2022-08-22T08:37:27.523Z,101480.91
2022-08-22T08:40:03.107Z,101471.53
2022-08-22T08:43:16.310Z,101473.41
2022-08-22T08:46:17.677Z,101466.56
2022-08-22T08:49:30.838Z,101459.56
2022-08-22T08:52:45.439Z,101457.31
2022-08-22T08:55:32.465Z,101456.69
2022-08-22T08:58:34.977Z,101455.31
2022-08-22T09:01:33.124Z,101454.09
2022-08-22T09:06:09.363Z,101444.63
2022-08-22T09:09:13.956Z,101453.91
2022-08-22T09:12:32.564Z,101455.66
2022-08-22T09:15:59.708Z,101460.34
2022-08-22T09:19:04.551Z,101461.16
2022-08-22T09:22:21.275Z,101466.50
2022-08-22T09:25:23.656Z,101468.97
2022-08-22T09:28:03.795Z,101469.75
2022-08-22T09:30:59.356Z,101464.69
2022-08-22T09:33:47.147Z,101469.75
2022-08-22T09:36:28.728Z,101465.94
2022-08-22T09:39:06.559Z,101472.75
2022-08-22T09:41:46.336Z,101466.53
2022-08-22T09:44:39.461Z,101468.28
2022-08-22T09:47:24.764Z,101471.00
2022-08-22T09:50:07.541Z,101468.69
2022-08-22T09:53:11.608Z,101470.63
2022-08-22T09:55:57.142Z,101471.47
2022-08-22T09:58:41.823Z,101470.59
2022-08-22T10:01:32.847Z,101472.81
2022-08-22T10:04:40.332Z,101467.06
2022-08-22T10:08:01.835Z,101461.97
2022-08-22T10:11:06.672Z,101462.81
2022-08-22T10:13:57.380Z,101456.88
2022-08-22T10:17:08.902Z,101458.75
2022-08-22T10:19:43.636Z,101453.91
2022-08-22T10:22:34.592Z,101452.50
2022-08-22T10:25:31.341Z,101450.50
2022-08-22T10:28:18.274Z,101459.13
2022-08-22T10:31:11.677Z,101463.75
2022-08-22T10:33:54.485Z,101458.41
2022-08-22T10:36:37.177Z,101475.34
2022-08-22T10:39:12.786Z,101479.44
2022-08-22T10:42:01.914Z,101472.47
2022-08-22T10:44:44.625Z,101466.53
2022-08-22T10:47:22.301Z,101476.13
2022-08-22T10:50:08.703Z,101473.75
2022-08-22T10:52:48.454Z,101475.63
2022-08-22T10:55:26.349Z,101474.66
2022-08-22T10:58:10.008Z,101473.06
2022-08-22T11:01:38.406Z,101475.22
2022-08-22T11:05:50.030Z,101481.88
2022-08-22T11:09:10.457Z,101480.09
2022-08-22T11:11:46.874Z,101483.75
2022-08-22T11:15:04.074Z,101491.47
2022-08-22T11:18:19.207Z,101483.56
2022-08-22T11:21:03.286Z,101484.25
2022-08-22T11:23:45.317Z,101488.38
2022-08-22T11:26:46.618Z,101483.19
2022-08-22T11:29:41.232Z,101485.50
2022-08-22T11:32:20.001Z,101482.75
2022-08-22T11:35:09.239Z,101489.81
2022-08-22T11:37:56.613Z,101492.94
2022-08-22T11:40:43.983Z,101484.59
2022-08-22T11:43:41.936Z,101489.16
2022-08-22T11:46:24.260Z,101483.56
2022-08-22T11:49:28.226Z,101476.06
2022-08-22T11:52:27.952Z,101475.28
2022-08-22T11:55:32.807Z,101479.72
2022-08-22T11:58:28.949Z,101486.00
2022-08-22T12:01:04.472Z,101485.91
2022-08-22T12:04:03.958Z,101479.56
2022-08-22T12:06:55.890Z,101481.94
2022-08-22T12:09:44.404Z,101476.22
2022-08-22T12:12:56.435Z,101478.66
2022-08-22T12:15:33.326Z,101480.50
2022-08-22T12:18:42.784Z,101473.22
2022-08-22T12:21:58.860Z,101467.88
2022-08-22T12:24:54.649Z,101455.41
2022-08-22T12:27:59.232Z,101461.09
2022-08-22T12:30:38.242Z,101462.22
2022-08-22T12:33:48.266Z,101461.31
2022-08-22T12:36:41.684Z,101468.34
2022-08-22T12:39:46.417Z,101464.94
2022-08-22T12:42:47.400Z,101459.19
2022-08-22T12:45:46.872Z,101463.44
2022-08-22T12:48:52.308Z,101461.03
2022-08-22T12:51:33.662Z,101448.50
2022-08-22T12:54:41.193Z,101446.19
2022-08-22T12:57:26.920Z,101450.94
2022-08-22T13:00:27.133Z,101452.13
2022-08-22T13:05:40.380Z,101445.84
2022-08-22T13:08:17.604Z,101450.72
2022-08-22T13:10:52.228Z,101451.16
2022-08-22T13:13:39.651Z,101449.03
2022-08-22T13:16:13.409Z,101449.50
2022-08-22T13:18:53.837Z,101452.47
2022-08-22T13:21:34.618Z,101447.94
2022-08-22T13:24:17.009Z,101443.66
2022-08-22T13:27:03.050Z,101439.84
2022-08-22T13:29:51.104Z,101439.34
2022-08-22T13:32:29.793Z,101433.28
2022-08-22T13:35:00.685Z,101429.50
2022-08-22T13:37:40.667Z,101432.81
2022-08-22T13:40:27.298Z,101439.91
2022-08-22T13:43:12.895Z,101441.00
2022-08-22T13:45:56.820Z,101447.66
2022-08-22T13:48:31.163Z,101439.59
2022-08-22T13:51:13.002Z,101442.88
2022-08-22T13:54:00.378Z,101444.94
2022-08-22T13:56:52.573Z,101431.63
2022-08-22T13:59:50.959Z,101443.09
2022-08-22T14:02:57.842Z,101433.25
2022-08-22T14:05:44.102Z,101435.41
2022-08-22T14:08:19.931Z,101439.44
2022-08-22T14:11:01.905Z,101435.22
2022-08-22T14:13:45.531Z,101444.59
2022-08-22T14:16:23.980Z,101448.38
2022-08-22T14:18:57.889Z,101449.44
2022-08-22T14:21:40.944Z,101453.09
2022-08-22T14:24:27.197Z,101450.75
2022-08-22T14:27:05.099Z,101459.31
2022-08-22T14:29:43.604Z,101459.41
2022-08-22T14:32:35.360Z,101449.06
2022-08-22T14:35:21.626Z,101449.25
2022-08-22T14:38:02.294Z,101446.31
2022-08-22T14:40:37.750Z,101445.91
2022-08-22T14:43:26.249Z,101452.94
2022-08-22T14:46:02.207Z,101446.13
2022-08-22T14:48:40.538Z,101447.34
2022-08-22T14:51:22.831Z,101442.38
2022-08-22T14:53:52.388Z,101441.91
2022-08-22T14:56:27.873Z,101440.13
2022-08-22T14:59:04.541Z,101434.91
2022-08-22T15:01:38.897Z,101436.28
2022-08-22T15:05:29.056Z,101437.91
2022-08-22T15:08:08.697Z,101435.16
2022-08-22T15:10:42.333Z,101427.34
2022-08-22T15:13:12.449Z,101428.78
2022-08-22T15:15:53.580Z,101426.91
2022-08-22T15:18:37.276Z,101415.22
2022-08-22T15:21:14.190Z,101426.69
2022-08-22T15:23:48.431Z,101418.19
2022-08-22T15:26:28.114Z,101419.91
2022-08-22T15:29:20.774Z,101414.50
2022-08-22T15:31:53.449Z,101406.38
2022-08-22T15:34:38.098Z,101405.84
2022-08-22T15:37:33.119Z,101409.50
2022-08-22T15:40:15.518Z,101391.47
2022-08-22T15:42:48.832Z,101401.59
2022-08-22T15:45:33.841Z,101402.53
2022-08-22T15:48:07.930Z,101401.28
2022-08-22T15:50:55.983Z,101406.22
2022-08-22T15:53:33.576Z,101400.88
2022-08-22T15:56:33.978Z,101398.63
2022-08-22T15:59:53.940Z,101390.38
2022-08-22T16:02:35.045Z,101398.28
2022-08-22T16:05:26.099Z,101394.00
2022-08-22T16:08:10.120Z,101387.50
2022-08-22T16:10:47.255Z,101389.19
2022-08-22T16:13:40.313Z,101392.63
2022-08-22T16:16:27.847Z,101386.78
2022-08-22T16:19:21.326Z,101391.91
2022-08-22T16:22:17.425Z,101391.22
2022-08-22T16:25:10.906Z,101394.03
2022-08-22T16:27:57.238Z,101387.06
2022-08-22T16:30:39.743Z,101382.16
2022-08-22T16:33:17.948Z,101381.56
2022-08-22T16:36:47.348Z,101378.50
2022-08-22T16:39:38.799Z,101384.44
2022-08-22T16:42:29.009Z,101372.53
2022-08-22T16:45:15.585Z,101382.59
2022-08-22T16:47:52.749Z,101385.81
2022-08-22T16:50:35.909Z,101389.03
2022-08-22T16:53:11.499Z,101389.72
2022-08-22T16:56:11.626Z,101387.31
2022-08-22T16:59:23.676Z,101403.97
2022-08-22T17:05:48.983Z,101400.38
2022-08-22T17:08:38.337Z,101409.88
2022-08-22T17:11:27.335Z,101410.75
2022-08-22T17:14:18.834Z,101411.84
2022-08-22T17:17:15.254Z,101415.91
2022-08-22T17:20:11.549Z,101436.19
2022-08-22T17:22:58.068Z,101429.25
2022-08-22T17:25:37.214Z,101427.34
2022-08-22T17:28:25.638Z,101431.94
2022-08-22T17:31:06.719Z,101434.06
2022-08-22T17:34:09.980Z,101428.66
2022-08-22T17:36:57.184Z,101424.56
2022-08-22T17:39:55.649Z,101431.81
2022-08-22T17:43:16.722Z,101435.00
2022-08-22T17:46:13.298Z,101438.03
2022-08-22T17:48:51.605Z,101441.63
2022-08-22T17:51:29.868Z,101434.69
2022-08-22T17:54:06.296Z,101438.41
2022-08-22T17:56:47.433Z,101442.69
2022-08-22T17:59:27.396Z,101452.84
2022-08-22T18:02:09.413Z,101451.03
2022-08-22T18:04:48.071Z,101446.03
2022-08-22T18:07:51.897Z,101454.28
2022-08-22T18:10:38.402Z,101457.69
2022-08-22T18:13:18.882Z,101457.53
2022-08-22T18:15:56.436Z,101450.88
2022-08-22T18:18:34.343Z,101455.31
2022-08-22T18:21:11.218Z,101459.22
2022-08-22T18:23:46.543Z,101458.34
2022-08-22T18:26:30.805Z,101458.63
2022-08-22T18:29:11.734Z,101470.00
2022-08-22T18:31:54.757Z,101473.50
2022-08-22T18:34:38.318Z,101471.44
2022-08-22T18:37:22.207Z,101474.13
2022-08-22T18:40:00.016Z,101480.00
2022-08-22T18:42:37.988Z,101483.53
2022-08-22T18:45:15.873Z,101478.72
2022-08-22T18:47:50.940Z,101483.41
2022-08-22T18:50:34.245Z,101482.84
2022-08-22T18:53:04.503Z,101479.09
2022-08-22T18:55:54.991Z,101487.03
2022-08-22T18:59:09.434Z,101491.72
2022-08-22T19:06:14.954Z,101495.88
2022-08-22T19:09:13.892Z,101485.06
2022-08-22T19:12:01.451Z,101495.25
2022-08-22T19:15:10.923Z,101490.28
2022-08-22T19:18:02.720Z,101498.22
2022-08-22T19:20:51.730Z,101484.63
2022-08-22T19:23:47.623Z,101489.66
2022-08-22T19:26:38.158Z,101491.88
2022-08-22T19:29:48.808Z,101491.00
2022-08-22T19:33:03.263Z,101492.38
2022-08-22T19:35:46.326Z,101489.81
2022-08-22T19:39:08.825Z,101494.72
2022-08-22T19:41:50.974Z,101497.06
2022-08-22T19:44:51.474Z,101508.22
2022-08-22T19:47:36.223Z,101506.25
2022-08-22T19:50:14.890Z,101505.84
2022-08-22T19:53:04.235Z,101502.59
2022-08-22T19:55:57.453Z,101501.50
2022-08-22T19:58:42.559Z,101501.78
2022-08-22T20:01:45.324Z,101510.13
2022-08-22T20:04:56.368Z,101507.69
2022-08-22T20:07:45.603Z,101510.00
2022-08-22T20:10:31.783Z,101511.34
2022-08-22T20:13:12.018Z,101520.63
2022-08-22T20:16:07.424Z,101514.22
2022-08-22T20:19:07.341Z,101513.69
2022-08-22T20:21:46.354Z,101513.69
2022-08-22T20:24:24.873Z,101509.97
2022-08-22T20:27:13.361Z,101508.25
2022-08-22T20:29:54.395Z,101511.44
2022-08-22T20:32:26.497Z,101508.88
2022-08-22T20:35:03.532Z,101506.63
2022-08-22T20:38:05.803Z,101512.94
2022-08-22T20:40:56.430Z,101508.97
2022-08-22T20:43:35.251Z,101514.25
2022-08-22T20:46:27.675Z,101512.88
2022-08-22T20:48:58.610Z,101508.75
2022-08-22T20:51:32.189Z,101512.75
2022-08-22T20:54:15.347Z,101505.19
2022-08-22T20:56:53.808Z,101508.19
2022-08-22T20:59:51.071Z,101516.78
2022-08-22T21:05:39.618Z,101519.63
2022-08-22T21:08:15.081Z,101528.22
2022-08-22T21:11:02.725Z,101524.09
2022-08-22T21:13:36.355Z,101522.09
2022-08-22T21:16:17.803Z,101527.97
2022-08-22T21:18:49.595Z,101530.25
2022-08-22T21:21:25.664Z,101528.97
2022-08-22T21:24:00.721Z,101528.38
2022-08-22T21:26:33.888Z,101525.69
2022-08-22T21:29:07.835Z,101523.41
2022-08-22T21:31:43.977Z,101525.25
2022-08-22T21:34:17.391Z,101523.41
2022-08-22T21:36:52.217Z,101527.97
2022-08-22T21:39:28.100Z,101518.13
2022-08-22T21:42:14.980Z,101532.97
2022-08-22T21:44:55.407Z,101530.94
2022-08-22T21:47:32.419Z,101526.97
2022-08-22T21:50:10.596Z,101524.69
2022-08-22T21:52:44.158Z,101530.09
2022-08-22T21:55:29.315Z,101523.41
2022-08-22T21:58:32.644Z,101530.81
2022-08-22T22:01:31.553Z,101532.09
2022-08-22T22:04:01.248Z,101533.97
2022-08-22T22:06:30.037Z,101534.94
2022-08-22T22:09:05.867Z,101541.34
2022-08-22T22:11:35.380Z,101532.53
2022-08-22T22:14:04.303Z,101541.66
2022-08-22T22:16:34.268Z,101539.94
2022-08-22T22:19:03.734Z,101537.53
2022-08-22T22:21:33.660Z,101540.25
2022-08-22T22:24:04.631Z,101542.50
2022-08-22T22:26:33.664Z,101544.34
2022-08-22T22:29:03.914Z,101544.50
2022-08-22T22:31:32.963Z,101551.91
2022-08-22T22:34:02.782Z,101545.28
2022-08-22T22:36:31.738Z,101546.44
2022-08-22T22:39:04.812Z,101545.06
2022-08-22T22:41:33.799Z,101550.72
2022-08-22T22:44:03.406Z,101540.72
2022-08-22T22:46:32.953Z,101544.34
2022-08-22T22:49:01.716Z,101549.41
2022-08-22T22:51:30.796Z,101547.00
2022-08-22T22:53:59.455Z,101547.41
2022-08-22T22:56:29.463Z,101548.69
2022-08-22T22:59:00.753Z,101547.81
2022-08-22T23:05:29.513Z,101543.56
2022-08-22T23:07:59.090Z,101546.16
2022-08-22T23:10:29.506Z,101548.13
2022-08-22T23:12:58.499Z,101546.84
2022-08-22T23:15:28.598Z,101541.72
2022-08-22T23:17:57.383Z,101539.88
2022-08-22T23:20:26.509Z,101553.56
2022-08-22T23:22:56.861Z,101551.69
2022-08-22T23:25:25.461Z,101545.59
2022-08-22T23:27:55.282Z,101545.84
2022-08-22T23:30:24.058Z,101549.56
2022-08-22T23:32:52.700Z,101549.97
2022-08-22T23:35:22.215Z,101548.38
2022-08-22T23:37:50.825Z,101554.94
2022-08-22T23:40:21.226Z,101550.34
2022-08-22T23:42:49.912Z,101555.47
2022-08-22T23:45:19.017Z,101556.59
2022-08-22T23:47:47.931Z,101562.44
2022-08-22T23:50:16.693Z,101561.72
2022-08-22T23:52:46.534Z,101557.56
2022-08-22T23:55:15.523Z,101565.94
2022-08-22T23:57:45.584Z,101568.63
